Time;durP1;ratioP1;P1;durP2;ratioP2;P2;SDS_P1;SDS_P2;PMS_P1;PMS_P2;Temp;Humidity;BMP_temperature;BMP_pressure;BME280_temperature;BME280_humidity;BME280_pressure;Samples;Min_cycle;Max_cycle;Signal;HPM_P1;HPM_P2
2021/12/06 00:00:38;;;;;;;40.08;23.02;;;;;;;-1.56;100.00;94986.19;1027296;28;20034;-71
2021/12/06 00:01:14;;;;;;;39.70;21.16;;;;;;;-1.56;100.00;94981.03;1025196;28;20031;-71
2021/12/06 00:02:15;;;;;;;35.64;20.60;;;;;;;-1.53;100.00;94990.91;1026394;28;20033;-72
2021/12/06 00:02:45;;;;;;;39.65;21.17;;;;;;;-1.52;100.00;94982.19;1025815;28;20090;-71
2021/12/06 00:03:19;;;;;;;38.67;21.20;;;;;;;-1.52;100.00;94984.78;1031060;28;20088;-72
2021/12/06 00:03:56;;;;;;;35.86;22.00;;;;;;;-1.55;100.00;94983.38;1025401;28;20027;-72
2021/12/06 00:04:29;;;;;;;38.54;21.16;;;;;;;-1.49;100.00;94986.94;1030438;28;20049;-70
2021/12/06 00:04:59;;;;;;;32.04;19.10;;;;;;;-1.48;100.00;94986.72;1028314;28;20038;-71
2021/12/06 00:05:30;;;;;;;32.70;19.40;;;;;;;-1.47;100.00;94987.53;1023940;28;20481;-70
2021/12/06 00:06:00;;;;;;;28.75;18.92;;;;;;;-1.46;100.00;94989.88;1025138;28;20545;-71
2021/12/06 00:06:33;;;;;;;30.05;18.95;;;;;;;-1.47;100.00;94983.16;1030593;28;20520;-72
2021/12/06 00:07:09;;;;;;;32.22;20.62;;;;;;;-1.49;100.00;94976.66;1027800;28;20042;-71
2021/12/06 00:07:39;;;;;;;32.42;20.46;;;;;;;-1.42;100.00;94990.25;1021856;28;20031;-71
2021/12/06 00:08:10;;;;;;;32.58;19.73;;;;;;;-1.44;100.00;94976.84;1020517;28;20043;-71
2021/12/06 00:08:40;;;;;;;34.60;21.33;;;;;;;-1.34;100.00;94996.94;1022458;29;20043;-71
2021/12/06 00:09:13;;;;;;;29.15;19.08;;;;;;;-1.37;100.00;94987.09;1023022;28;20043;-70
2021/12/06 00:09:44;;;;;;;29.30;19.10;;;;;;;-1.38;100.00;94983.69;1019328;28;20149;-70
2021/12/06 00:10:14;;;;;;;31.77;18.67;;;;;;;-1.32;100.00;95003.47;1024412;28;20625;-71
2021/12/06 00:10:50;;;;;;;25.10;18.02;;;;;;;-1.30;100.00;95000.69;1025602;28;20027;-71
2021/12/06 00:11:21;;;;;;;28.12;17.94;;;;;;;-1.31;100.00;95002.50;1025869;28;20516;-72
2021/12/06 00:11:57;;;;;;;29.35;17.52;;;;;;;-1.41;100.00;94989.25;1024288;28;20064;-72
2021/12/06 00:12:27;;;;;;;27.06;17.66;;;;;;;-1.30;100.00;94998.13;1028880;28;20038;-71
2021/12/06 00:12:57;;;;;;;29.35;19.10;;;;;;;-1.31;100.00;95002.50;1030100;28;20030;-71
2021/12/06 00:13:28;;;;;;;31.42;18.83;;;;;;;-1.29;100.00;95005.63;1026908;28;20042;-72
2021/12/06 00:13:59;;;;;;;30.20;18.83;;;;;;;-1.29;100.00;95004.84;1027112;28;20558;-72
2021/12/06 00:14:34;;;;;;;33.08;19.76;;;;;;;-1.28;100.00;95002.03;1020648;28;20133;-70
2021/12/06 00:15:04;;;;;;;28.74;18.36;;;;;;;-1.30;100.00;94998.13;1027108;28;20396;-73
2021/12/06 00:15:35;;;;;;;30.30;17.88;;;;;;;-1.28;100.00;95007.19;1031369;28;20053;-69
2021/12/06 00:16:09;;;;;;;29.58;18.20;;;;;;;-1.25;100.00;95011.94;1030120;28;20117;-72
2021/12/06 00:16:39;;;;;;;28.58;18.14;;;;;;;-1.25;100.00;95006.78;1024597;28;20043;-70
2021/12/06 00:17:14;;;;;;;32.45;18.55;;;;;;;-1.27;100.00;94998.50;1021304;29;20484;-71
2021/12/06 00:17:45;;;;;;;31.56;18.00;;;;;;;-1.20;100.00;95014.69;1030628;28;20088;-71
2021/12/06 00:18:16;;;;;;;26.83;17.75;;;;;;;-1.20;100.00;95014.69;1031099;28;20061;-71
2021/12/06 00:18:46;;;;;;;25.58;15.20;;;;;;;-1.21;100.00;95013.13;1021714;29;20094;-71
2021/12/06 00:19:17;;;;;;;25.67;17.70;;;;;;;-1.19;100.00;95005.97;1025001;28;20034;-71
2021/12/06 00:19:48;;;;;;;25.32;15.54;;;;;;;-1.14;100.00;95014.84;1027777;28;21288;-71
2021/12/06 00:20:18;;;;;;;23.08;14.75;;;;;;;-1.21;100.00;95007.16;1019375;29;20035;-72
2021/12/06 00:20:49;;;;;;;22.58;14.80;;;;;;;-1.22;100.00;94996.09;1015586;29;20533;-70
2021/12/06 00:21:20;;;;;;;24.67;15.60;;;;;;;-1.11;100.00;95017.00;1020690;29;20043;-72
2021/12/06 00:21:50;;;;;;;25.45;14.63;;;;;;;-1.22;100.00;95000.44;1022878;28;20019;-72
2021/12/06 00:22:23;;;;;;;24.55;13.63;;;;;;;-1.12;100.00;95007.72;1030921;28;20026;-71
2021/12/06 00:22:53;;;;;;;23.76;15.08;;;;;;;-1.16;100.00;94996.25;1029663;28;20030;-71
2021/12/06 00:23:24;;;;;;;25.95;15.23;;;;;;;-1.19;100.00;94998.25;1021385;29;20698;-72
2021/12/06 00:23:54;;;;;;;23.38;15.05;;;;;;;-1.12;100.00;95020.59;1021375;28;20087;-71
2021/12/06 00:24:25;;;;;;;20.17;14.05;;;;;;;-1.12;100.00;95010.28;1021112;29;20031;-72
2021/12/06 00:24:56;;;;;;;19.75;13.15;;;;;;;-1.15;100.00;95018.41;1022167;29;20023;-71
2021/12/06 00:25:26;;;;;;;22.77;13.55;;;;;;;-1.12;100.00;95015.44;1026257;28;20101;-72
2021/12/06 00:25:57;;;;;;;19.73;13.57;;;;;;;-1.13;100.00;95016.44;1025085;28;20030;-70
2021/12/06 00:26:27;;;;;;;22.55;14.00;;;;;;;-1.11;100.00;95022.16;1022560;29;20043;-72
2021/12/06 00:26:57;;;;;;;22.23;13.45;;;;;;;-1.12;100.00;95011.06;1018474;29;20722;-71
2021/12/06 00:27:28;;;;;;;18.08;12.73;;;;;;;-1.16;100.00;95001.41;1019600;29;20549;-71
2021/12/06 00:27:58;;;;;;;20.90;13.25;;;;;;;-1.09;100.00;95015.81;1021460;29;20112;-71
2021/12/06 00:28:29;;;;;;;23.08;14.13;;;;;;;-1.08;100.00;95014.81;1017750;29;20028;-72
2021/12/06 00:28:59;;;;;;;19.05;12.05;;;;;;;-1.15;100.00;95003.75;1021776;29;20103;-72
2021/12/06 00:29:30;;;;;;;24.27;13.27;;;;;;;-1.23;100.00;94993.72;1024627;28;20023;-71
2021/12/06 00:30:00;;;;;;;19.33;13.02;;;;;;;-1.12;100.00;95010.28;1022725;28;20031;-72
2021/12/06 00:30:31;;;;;;;23.17;14.23;;;;;;;-1.14;100.00;95007.13;1020539;29;20536;-70
2021/12/06 00:31:02;;;;;;;20.13;12.77;;;;;;;-1.10;100.00;95009.09;1022773;28;20043;-71
2021/12/06 00:31:34;;;;;;;21.52;13.15;;;;;;;-1.06;100.00;95017.19;1019590;29;20024;-72
2021/12/06 00:32:05;;;;;;;22.14;13.14;;;;;;;-1.16;100.00;94994.47;1024630;28;20031;-71
2021/12/06 00:32:35;;;;;;;18.40;12.07;;;;;;;-1.13;100.00;95001.00;1021456;28;20074;-72
2021/12/06 00:33:05;;;;;;;21.42;12.98;;;;;;;-1.03;100.00;95009.06;1026421;28;20424;-71
2021/12/06 00:33:36;;;;;;;22.90;13.27;;;;;;;-1.06;100.00;95006.88;1026861;28;20043;-72
2021/12/06 00:34:11;;;;;;;19.90;12.52;;;;;;;-1.06;100.00;95004.31;1025165;28;20031;-72
2021/12/06 00:34:42;;;;;;;21.16;12.08;;;;;;;-0.98;100.00;95015.13;1021067;28;20452;-71
2021/12/06 00:35:18;;;;;;;20.77;11.63;;;;;;;-1.00;100.00;95011.22;1025237;28;20034;-72
2021/12/06 00:35:49;;;;;;;23.74;13.20;;;;;;;-1.07;100.00;94998.38;1021072;29;20613;-71
2021/12/06 00:36:27;;;;;;;20.48;12.68;;;;;;;-1.01;100.00;95012.19;1023377;28;20070;-71
2021/12/06 00:37:58;;;;;;;24.14;12.06;;;;;;;-0.99;100.00;95010.22;1026842;28;20094;-71
2021/12/06 00:38:29;;;;;;;21.54;12.60;;;;;;;-1.00;100.00;95013.78;1020279;29;20130;-71
2021/12/06 00:39:00;;;;;;;19.80;12.15;;;;;;;-1.04;100.00;95007.44;1020625;29;20110;-72
2021/12/06 00:39:31;;;;;;;23.06;12.66;;;;;;;-0.95;100.00;95019.09;1017720;29;20036;-73
2021/12/06 00:40:03;;;;;;;21.98;12.75;;;;;;;-0.95;100.00;95014.72;1018764;29;20036;-73
2021/12/06 00:40:36;;;;;;;18.28;12.34;;;;;;;-0.93;100.00;95019.69;1023042;29;20532;-71
2021/12/06 00:41:09;;;;;;;20.84;12.42;;;;;;;-0.93;100.00;95019.69;1021413;28;20696;-71
2021/12/06 00:41:40;;;;;;;18.68;12.26;;;;;;;-0.91;100.00;95017.66;1023764;28;20537;-72
2021/12/06 00:42:10;;;;;;;20.67;11.70;;;;;;;-1.02;100.00;95010.63;1025004;28;20031;-72
2021/12/06 00:42:40;;;;;;;18.75;11.45;;;;;;;-0.92;100.00;95021.25;1027424;28;20022;-72
2021/12/06 00:43:11;;;;;;;19.02;12.63;;;;;;;-0.94;100.00;95018.06;1025402;28;20018;-72
2021/12/06 00:43:41;;;;;;;20.00;13.40;;;;;;;-1.02;100.00;95013.19;1026416;28;20762;-72
2021/12/06 00:44:12;;;;;;;21.08;12.88;;;;;;;-0.97;100.00;95018.53;1030633;28;20026;-71
2021/12/06 00:44:43;;;;;;;20.52;12.25;;;;;;;-1.00;100.00;95014.56;1030678;28;20018;-72
2021/12/06 00:45:13;;;;;;;20.50;12.65;;;;;;;-0.93;100.00;95024.03;1029424;28;20014;-71
2021/12/06 00:45:44;;;;;;;22.65;13.27;;;;;;;-0.97;100.00;95018.53;1029015;28;20130;-71
2021/12/06 00:46:14;;;;;;;20.42;12.50;;;;;;;-0.97;100.00;95023.66;1024250;28;20015;-72
2021/12/06 00:46:45;;;;;;;22.58;13.45;;;;;;;-0.96;100.00;95017.53;1023264;29;20485;-72
2021/12/06 00:47:15;;;;;;;22.17;13.05;;;;;;;-1.03;100.00;95011.63;1021227;28;20503;-70
2021/12/06 00:47:46;;;;;;;20.58;13.45;;;;;;;-0.96;100.00;95020.88;1026070;28;20041;-72
2021/12/06 00:48:16;;;;;;;22.00;12.82;;;;;;;-0.95;100.00;95019.09;1027710;28;20785;-72
2021/12/06 00:48:47;;;;;;;19.65;12.60;;;;;;;-0.95;100.00;95022.44;1027316;28;20026;-72
2021/12/06 00:49:17;;;;;;;23.70;12.93;;;;;;;-0.99;100.00;95007.63;1025455;28;20027;-70
2021/12/06 00:49:49;;;;;;;25.65;13.27;;;;;;;-1.00;100.00;95009.41;1021558;28;20129;-72
2021/12/06 00:50:20;;;;;;;20.28;13.10;;;;;;;-0.98;100.00;95009.19;1025967;28;20054;-70
2021/12/06 00:50:51;;;;;;;22.36;13.26;;;;;;;-1.00;100.00;95008.63;1023271;29;20032;-72
2021/12/06 00:51:21;;;;;;;22.75;12.70;;;;;;;-0.88;100.00;95027.56;1014623;29;20401;-72
2021/12/06 00:51:51;;;;;;;24.10;14.50;;;;;;;-0.88;100.00;95024.97;1017152;29;20076;-71
2021/12/06 00:52:22;;;;;;;21.75;13.90;;;;;;;-0.87;100.00;95024.00;1021037;28;20031;-71
2021/12/06 00:52:52;;;;;;;23.80;13.70;;;;;;;-0.97;100.00;95006.44;1027196;28;20027;-72
2021/12/06 00:53:23;;;;;;;22.67;13.27;;;;;;;-0.88;100.00;95017.25;1017024;29;20074;-72
2021/12/06 00:53:53;;;;;;;24.08;13.73;;;;;;;-0.85;100.00;95022.00;1022598;29;20023;-71
2021/12/06 00:54:24;;;;;;;23.75;14.05;;;;;;;-0.83;100.00;95029.53;1022740;28;20032;-71
2021/12/06 00:54:54;;;;;;;24.42;14.13;;;;;;;-0.82;100.00;95019.00;1026710;28;20018;-72
2021/12/06 00:55:25;;;;;;;21.23;13.20;;;;;;;-0.84;100.00;95017.63;1027834;28;20774;-71
2021/12/06 00:55:55;;;;;;;22.33;14.25;;;;;;;-0.90;100.00;95014.13;1029503;28;20030;-73
2021/12/06 00:56:26;;;;;;;20.08;11.88;;;;;;;-0.93;100.00;95016.31;1028005;28;20562;-71
2021/12/06 00:56:56;;;;;;;23.05;13.30;;;;;;;-0.91;100.00;95015.09;1020924;29;20118;-71
2021/12/06 00:57:26;;;;;;;22.80;13.10;;;;;;;-0.86;100.00;95025.56;1022075;29;20031;-72
2021/12/06 00:57:57;;;;;;;24.85;14.05;;;;;;;-0.86;100.00;95019.63;1016876;29;20038;-71
2021/12/06 00:58:27;;;;;;;23.30;13.07;;;;;;;-0.90;100.00;95016.69;1018377;28;20023;-71
2021/12/06 00:58:58;;;;;;;24.33;12.73;;;;;;;-0.86;100.00;95019.63;1027167;28;20500;-70
2021/12/06 00:59:28;;;;;;;24.50;13.93;;;;;;;-0.84;100.00;95033.06;1022671;28;20432;-71
2021/12/06 00:59:59;;;;;;;24.95;13.93;;;;;;;-0.86;100.00;95020.41;1020432;28;20636;-70
2021/12/06 01:00:38;;;;;;;24.67;13.43;;;;;;;-0.86;100.00;95015.28;1026339;28;20039;-72
2021/12/06 01:01:09;;;;;;;24.08;13.34;;;;;;;-0.83;100.00;95027.72;1022750;28;20050;-71
2021/12/06 01:01:39;;;;;;;25.15;13.48;;;;;;;-0.83;100.00;95024.38;1022439;29;20559;-71
2021/12/06 01:02:10;;;;;;;25.38;13.60;;;;;;;-0.83;100.00;95019.22;1016753;29;20031;-71
2021/12/06 01:02:41;;;;;;;23.80;13.77;;;;;;;-0.87;100.00;95013.69;1022380;28;20038;-71
2021/12/06 01:03:16;;;;;;;27.95;14.55;;;;;;;-0.86;100.00;95015.28;1023905;28;20373;-71
2021/12/06 01:03:47;;;;;;;25.74;13.52;;;;;;;-0.85;100.00;95016.84;1025660;28;20134;-71
2021/12/06 01:04:18;;;;;;;22.85;14.15;;;;;;;-0.87;100.00;95016.28;1024173;28;20042;-71
2021/12/06 01:04:49;;;;;;;24.65;14.93;;;;;;;-0.87;100.00;95018.84;1023890;28;20627;-71
2021/12/06 01:05:22;;;;;;;25.25;14.55;;;;;;;-0.89;100.00;95020.06;1019365;28;20130;-72
2021/12/06 01:05:53;;;;;;;26.02;14.46;;;;;;;-1.00;100.00;95006.06;1024963;28;20646;-70
2021/12/06 01:06:23;;;;;;;26.10;14.20;;;;;;;-0.89;100.00;95020.84;1016758;29;20143;-71
2021/12/06 01:06:54;;;;;;;26.70;13.95;;;;;;;-0.89;100.00;95020.84;1023098;29;20019;-72
2021/12/06 01:07:24;;;;;;;25.55;15.00;;;;;;;-0.96;100.00;95007.22;1019307;29;20614;-71
2021/12/06 01:07:55;;;;;;;24.42;14.40;;;;;;;-0.86;100.00;95017.06;1021572;28;20019;-69
2021/12/06 01:08:25;;;;;;;20.80;12.95;;;;;;;-0.87;100.00;95021.44;1025099;28;20019;-72
2021/12/06 01:08:56;;;;;;;27.05;13.25;;;;;;;-0.89;100.00;95022.63;1032039;28;20494;-71
2021/12/06 01:09:26;;;;;;;20.80;12.75;;;;;;;-0.87;100.00;95024.00;1031066;28;20015;-71
2021/12/06 01:09:57;;;;;;;23.33;13.93;;;;;;;-0.88;100.00;95027.56;1026821;28;20034;-70
2021/12/06 01:10:27;;;;;;;23.75;13.20;;;;;;;-0.98;100.00;95011.78;1023946;28;20531;-71
2021/12/06 01:10:58;;;;;;;25.38;13.50;;;;;;;-0.97;100.00;95010.78;1022504;29;20027;-73
2021/12/06 01:11:28;;;;;;;22.70;13.07;;;;;;;-0.96;100.00;95014.94;1021048;29;20039;-71
2021/12/06 01:11:59;;;;;;;21.45;13.15;;;;;;;-0.93;100.00;95024.81;1027143;28;20033;-72
2021/12/06 01:12:32;;;;;;;25.95;14.35;;;;;;;-0.93;100.00;95024.81;1021136;28;20023;-71
2021/12/06 01:13:03;;;;;;;21.48;13.64;;;;;;;-1.03;100.00;95019.34;1026093;28;20023;-71
2021/12/06 01:13:33;;;;;;;24.60;13.27;;;;;;;-0.92;100.00;95035.91;1020767;29;20031;-71
2021/12/06 01:14:03;;;;;;;27.75;14.40;;;;;;;-0.93;100.00;95034.34;1027035;28;20022;-70
2021/12/06 01:14:34;;;;;;;23.90;14.20;;;;;;;-0.96;100.00;95033.75;1020953;28;20035;-72
2021/12/06 01:15:05;;;;;;;27.25;14.57;;;;;;;-0.95;100.00;95031.97;1026632;28;20034;-72
2021/12/06 01:15:36;;;;;;;23.24;14.88;;;;;;;-1.00;100.00;95029.22;1023066;28;20019;-71
2021/12/06 01:16:07;;;;;;;24.48;15.14;;;;;;;-0.96;100.00;95030.38;1023074;29;20464;-71
2021/12/06 01:16:38;;;;;;;22.35;14.52;;;;;;;-1.01;100.00;95023.28;1027264;28;20022;-71
2021/12/06 01:17:08;;;;;;;30.00;14.88;;;;;;;-0.99;100.00;95023.88;1029704;28;20579;-72
2021/12/06 01:17:39;;;;;;;27.55;15.48;;;;;;;-0.95;100.00;95037.09;1015306;29;20024;-71
2021/12/06 01:18:11;;;;;;;25.75;14.30;;;;;;;-0.96;100.00;95040.69;1015338;29;20028;-70
2021/12/06 01:18:42;;;;;;;30.88;16.96;;;;;;;-0.95;100.00;95030.16;1020740;29;20019;-71
2021/12/06 01:19:12;;;;;;;27.83;15.88;;;;;;;-0.97;100.00;95028.81;1017717;29;20090;-71
2021/12/06 01:19:43;;;;;;;23.67;14.85;;;;;;;-0.94;100.00;95028.38;1018230;29;20027;-71
2021/12/06 01:20:18;;;;;;;27.05;16.75;;;;;;;-0.95;100.00;95027.59;1018791;29;20563;-71
2021/12/06 01:21:06;;;;;;;26.88;15.56;;;;;;;-0.93;100.00;95036.91;1022544;28;20034;-71
2021/12/06 01:22:50;;;;;;;26.65;16.30;;;;;;;-0.92;100.00;95038.50;1017638;29;20513;-71
2021/12/06 01:23:24;;;;;;;23.26;14.18;;;;;;;-0.92;100.00;95043.63;1015730;29;20036;-70
2021/12/06 01:23:58;;;;;;;28.08;15.94;;;;;;;-0.92;100.00;95039.28;1010879;29;20060;-71
2021/12/06 01:24:37;;;;;;;26.36;15.74;;;;;;;-0.88;100.00;95048.16;1009113;29;20032;-70
2021/12/06 01:25:20;;;;;;;25.94;16.14;;;;;;;-0.87;100.00;95047.19;1012669;29;20043;-70
2021/12/06 01:27:30;;;;;;;29.58;15.98;;;;;;;-0.85;100.00;95052.88;1029419;28;20112;-71
2021/12/06 01:28:36;;;;;;;25.15;14.75;;;;;;;-0.83;100.00;95053.47;1027035;28;20045;-72
2021/12/06 01:29:44;;;;;;;20.98;13.94;;;;;;;-0.92;100.00;95062.44;1025683;28;20074;-72
2021/12/06 01:31:11;;;;;;;23.30;13.70;;;;;;;-0.93;100.00;95053.16;1028804;28;20034;-72
2021/12/06 01:32:37;;;;;;;24.64;14.34;;;;;;;-0.91;100.00;95053.72;1023242;28;20070;-71
2021/12/06 01:39:28;;;;;;;29.48;15.88;;;;;;;-0.92;100.00;95062.44;1016283;29;20114;-71
2021/12/06 01:39:58;;;;;;;33.54;17.86;;;;;;;-1.02;100.00;95046.66;1022613;28;20046;-72
2021/12/06 01:40:29;;;;;;;35.03;18.23;;;;;;;-0.95;100.00;95063.63;1023164;29;20469;-71
2021/12/06 01:40:59;;;;;;;36.55;18.67;;;;;;;-0.94;100.00;95064.44;1025057;28;20398;-71
2021/12/06 01:41:30;;;;;;;42.60;20.00;;;;;;;-0.99;100.00;95052.19;1025184;28;20647;-72
2021/12/06 01:42:01;;;;;;;48.32;20.78;;;;;;;-0.94;100.00;95064.44;1020784;29;20097;-71
2021/12/06 01:42:32;;;;;;;42.32;20.64;;;;;;;-0.95;100.00;95065.44;1019391;29;20537;-72
2021/12/06 01:43:06;;;;;;;39.00;19.38;;;;;;;-1.04;100.00;95051.22;1025733;28;20046;-72
2021/12/06 01:43:36;;;;;;;40.68;20.02;;;;;;;-0.93;100.00;95060.88;1021326;28;20101;-72
2021/12/06 01:44:11;;;;;;;40.05;20.90;;;;;;;-0.91;100.00;95068.38;1024605;28;20054;-72
2021/12/06 01:44:45;;;;;;;37.10;19.94;;;;;;;-0.97;100.00;95057.13;1026236;28;20019;-72
2021/12/06 01:45:15;;;;;;;48.16;21.40;;;;;;;-0.91;100.00;95058.88;1020013;29;20474;-71
2021/12/06 01:45:46;;;;;;;60.60;22.48;;;;;;;-1.03;100.00;95051.03;1015642;29;20023;-70
2021/12/06 01:46:16;;;;;;;65.65;23.75;;;;;;;-1.03;100.00;95050.25;1022120;29;20434;-71
2021/12/06 01:46:52;;;;;;;78.43;23.17;;;;;;;-0.96;100.00;95066.44;1026814;28;20420;-71
2021/12/06 01:47:25;;;;;;;53.50;23.34;;;;;;;-1.04;100.00;95059.75;1019538;29;20024;-70
2021/12/06 01:47:55;;;;;;;62.74;23.16;;;;;;;-1.07;100.00;95051.66;1022755;28;20384;-71
2021/12/06 01:48:25;;;;;;;58.33;23.40;;;;;;;-1.05;100.00;95060.72;1021367;28;20799;-70
2021/12/06 01:48:56;;;;;;;57.22;23.48;;;;;;;-1.02;100.00;95067.25;1017824;28;20589;-71
2021/12/06 01:49:30;;;;;;;56.45;23.65;;;;;;;-0.99;100.00;95079.72;1028905;28;20505;-71
2021/12/06 01:50:29;;;;;;;56.50;23.88;;;;;;;-0.99;100.00;95077.16;1023836;28;20122;-71
2021/12/06 01:51:00;;;;;;;50.76;22.28;;;;;;;-0.97;100.00;95070.81;1026932;28;20081;-71
2021/12/06 01:51:30;;;;;;;47.60;21.85;;;;;;;-1.07;100.00;95056.81;1029107;28;20149;-71
2021/12/06 01:52:05;;;;;;;44.42;21.83;;;;;;;-0.98;100.00;95071.00;1026713;28;20086;-72
2021/12/06 01:52:38;;;;;;;54.48;22.54;;;;;;;-0.96;100.00;95069.78;1020661;29;20024;-71
2021/12/06 01:53:08;;;;;;;52.98;24.18;;;;;;;-0.94;100.00;95069.56;1021995;28;20023;-72
2021/12/06 01:53:38;;;;;;;51.63;24.05;;;;;;;-0.97;100.00;95065.66;1024441;28;20023;-72
2021/12/06 01:54:11;;;;;;;46.83;23.55;;;;;;;-0.97;100.00;95064.88;1027277;28;20058;-72
2021/12/06 01:54:42;;;;;;;47.46;23.20;;;;;;;-0.93;100.00;95068.59;1026531;28;20027;-72
2021/12/06 01:55:15;;;;;;;50.80;23.55;;;;;;;-0.93;100.00;95067.81;1021256;29;20405;-72
2021/12/06 01:55:45;;;;;;;50.48;23.18;;;;;;;-0.97;100.00;95059.72;1018951;29;20387;-72
2021/12/06 01:56:16;;;;;;;52.35;24.17;;;;;;;-0.94;100.00;95059.28;1015368;29;20075;-71
2021/12/06 01:56:47;;;;;;;53.03;25.35;;;;;;;-0.91;100.00;95066.59;1014950;29;20024;-72
2021/12/06 01:57:18;;;;;;;47.44;23.08;;;;;;;-0.98;100.00;95047.81;1014953;29;20036;-71
2021/12/06 01:57:48;;;;;;;55.90;24.42;;;;;;;-0.89;100.00;95063.81;1015738;29;20103;-71
2021/12/06 01:58:19;;;;;;;62.60;25.58;;;;;;;-0.88;100.00;95063.59;1023145;28;20031;-72
2021/12/06 01:58:49;;;;;;;50.45;23.42;;;;;;;-0.97;100.00;95050.19;1030814;28;20073;-71
2021/12/06 01:59:20;;;;;;;58.05;25.73;;;;;;;-0.89;100.00;95067.19;1030217;28;20030;-71
2021/12/06 01:59:52;;;;;;;41.08;21.73;;;;;;;-0.88;100.00;95062.81;1028545;28;20175;-71
2021/12/06 02:00:27;;;;;;;54.08;24.78;;;;;;;-0.93;100.00;95066.03;1028416;28;20027;-71
2021/12/06 02:00:57;;;;;;;61.30;25.02;;;;;;;-1.04;100.00;95058.94;1022638;29;20031;-72
2021/12/06 02:01:28;;;;;;;54.63;24.63;;;;;;;-0.98;100.00;95069.19;1027217;28;20039;-71
2021/12/06 02:01:58;;;;;;;48.63;23.05;;;;;;;-0.95;100.00;95068.78;1031126;28;20113;-71
2021/12/06 02:02:28;;;;;;;51.45;23.38;;;;;;;-0.96;100.00;95072.38;1022603;28;20118;-72
2021/12/06 02:02:59;;;;;;;53.88;23.30;;;;;;;-1.09;100.00;95064.72;1024604;28;20027;-72
2021/12/06 02:03:29;;;;;;;53.28;25.27;;;;;;;-1.02;100.00;95074.97;1020344;29;20126;-71
2021/12/06 02:04:00;;;;;;;62.80;25.02;;;;;;;-1.00;100.00;95073.78;1019013;28;20020;-71
2021/12/06 02:04:32;;;;;;;53.40;24.15;;;;;;;-1.03;100.00;95069.03;1026093;28;20823;-69
2021/12/06 02:05:04;;;;;;;49.66;24.80;;;;;;;-0.99;100.00;95077.16;1026583;28;20018;-71
2021/12/06 02:05:34;;;;;;;52.18;24.78;;;;;;;-1.01;100.00;95066.25;1026032;28;20089;-72
2021/12/06 02:06:05;;;;;;;50.17;24.63;;;;;;;-1.15;100.00;95046.72;1023238;29;20477;-71
2021/12/06 02:06:36;;;;;;;54.50;26.05;;;;;;;-1.03;100.00;95061.31;1024976;28;20035;-71
2021/12/06 02:07:08;;;;;;;57.68;25.54;;;;;;;-0.95;100.00;95073.16;1016975;29;20584;-71
2021/12/06 02:07:38;;;;;;;52.94;24.16;;;;;;;-0.96;100.00;95074.16;1014741;29;20024;-70
2021/12/06 02:08:09;;;;;;;41.17;21.75;;;;;;;-0.94;100.00;95061.84;1019787;29;20039;-71
2021/12/06 02:08:42;;;;;;;42.22;22.40;;;;;;;-0.90;100.00;95072.56;1025670;28;20050;-71
2021/12/06 02:09:14;;;;;;;46.94;23.36;;;;;;;-0.86;100.00;95071.91;1018833;29;20020;-72
2021/12/06 02:09:45;;;;;;;47.44;23.72;;;;;;;-0.92;100.00;95065.03;1026725;28;20121;-71
2021/12/06 02:10:15;;;;;;;58.08;23.90;;;;;;;-0.86;100.00;95076.28;1015692;29;20478;-71
2021/12/06 02:10:46;;;;;;;39.38;21.30;;;;;;;-0.96;100.00;95056.13;1022127;28;20110;-71
2021/12/06 02:11:17;;;;;;;47.20;23.15;;;;;;;-0.82;100.00;95070.50;1022879;29;20042;-70
2021/12/06 02:11:47;;;;;;;41.67;22.92;;;;;;;-0.84;100.00;95072.50;1014811;29;20028;-72
2021/12/06 02:12:18;;;;;;;50.97;23.65;;;;;;;-0.91;100.00;95064.00;1014715;29;20016;-71
2021/12/06 02:12:51;;;;;;;48.22;23.55;;;;;;;-0.85;100.00;95067.56;1014930;29;20020;-71
2021/12/06 02:13:22;;;;;;;48.26;22.88;;;;;;;-0.85;100.00;95072.72;1018767;29;20055;-72
2021/12/06 02:14:09;;;;;;;46.25;21.88;;;;;;;-0.85;100.00;95068.34;1018745;29;20035;-72
2021/12/06 02:14:57;;;;;;;55.26;24.06;;;;;;;-0.80;100.00;95071.09;1019299;29;20025;-71
2021/12/06 02:16:10;;;;;;;43.82;20.34;;;;;;;-0.85;100.00;95076.06;1023064;29;20055;-71
2021/12/06 02:16:57;;;;;;;53.67;22.55;;;;;;;-0.81;100.00;95076.44;1026967;28;20143;-71
2021/12/06 02:17:32;;;;;;;43.80;20.76;;;;;;;-0.88;100.00;95066.19;1032857;28;20014;-72
2021/12/06 02:18:08;;;;;;;48.32;22.60;;;;;;;-0.77;100.00;95070.69;1029975;28;20026;-72
2021/12/06 02:18:44;;;;;;;56.22;23.84;;;;;;;-0.77;100.00;95075.84;1022563;29;20486;-71
2021/12/06 02:19:18;;;;;;;47.14;20.58;;;;;;;-0.81;100.00;95077.22;1018557;29;20059;-71
2021/12/06 02:19:56;;;;;;;48.84;21.88;;;;;;;-0.78;100.00;95084.53;1026464;28;20136;-72
2021/12/06 02:20:29;;;;;;;44.28;20.40;;;;;;;-0.81;100.00;95082.38;1025655;28;20033;-71
2021/12/06 02:21:31;;;;;;;42.16;19.88;;;;;;;-0.79;100.00;95079.59;1023577;28;20043;-71
2021/12/06 02:22:03;;;;;;;44.90;19.78;;;;;;;-0.80;100.00;95086.56;1027403;28;20534;-72
2021/12/06 02:22:36;;;;;;;55.22;23.16;;;;;;;-0.87;100.00;95067.78;1027778;28;20070;-71
2021/12/06 02:23:06;;;;;;;51.50;21.34;;;;;;;-0.76;100.00;95079.97;1034017;28;20099;-72
2021/12/06 02:23:37;;;;;;;52.85;23.40;;;;;;;-0.81;100.00;95072.06;1015948;29;20474;-71
2021/12/06 02:24:09;;;;;;;51.72;22.77;;;;;;;-0.83;100.00;95073.31;1023007;28;20470;-72
2021/12/06 02:24:40;;;;;;;48.16;23.12;;;;;;;-0.79;100.00;95087.34;1027276;28;20033;-72
2021/12/06 02:25:14;;;;;;;46.17;20.70;;;;;;;-0.84;100.00;95077.66;1023564;28;20083;-71
2021/12/06 02:25:47;;;;;;;46.64;22.30;;;;;;;-0.80;100.00;95086.56;1026274;28;20791;-72
2021/12/06 02:26:18;;;;;;;46.08;21.92;;;;;;;-0.80;100.00;95075.47;1027707;28;20029;-72
2021/12/06 02:26:48;;;;;;;51.45;23.27;;;;;;;-0.76;100.00;95086.91;1018612;29;20038;-71
2021/12/06 02:27:19;;;;;;;59.13;25.33;;;;;;;-0.78;100.00;95084.53;1024211;28;20058;-71
2021/12/06 02:27:51;;;;;;;53.03;23.35;;;;;;;-0.86;100.00;95074.50;1019773;29;20062;-71
2021/12/06 02:28:21;;;;;;;51.42;25.22;;;;;;;-0.79;100.00;95089.91;1019809;29;20393;-72
2021/12/06 02:28:51;;;;;;;57.50;24.70;;;;;;;-0.79;100.00;95089.91;1020101;29;20099;-72
2021/12/06 02:29:22;;;;;;;55.17;24.40;;;;;;;-0.76;100.00;95090.28;1017386;29;20114;-72
2021/12/06 02:29:53;;;;;;;48.45;23.67;;;;;;;-0.79;100.00;95082.97;1023532;28;20040;-72
2021/12/06 02:30:23;;;;;;;53.22;23.70;;;;;;;-0.78;100.00;95083.75;1024554;28;20055;-71
2021/12/06 02:30:54;;;;;;;47.30;22.98;;;;;;;-0.75;100.00;95086.69;1023905;28;20062;-71
2021/12/06 02:31:25;;;;;;;54.25;24.88;;;;;;;-0.83;100.00;95074.09;1027506;28;20031;-71
2021/12/06 02:31:55;;;;;;;55.02;23.40;;;;;;;-0.83;100.00;95076.66;1019728;29;20445;-71
2021/12/06 02:32:26;;;;;;;53.75;22.60;;;;;;;-0.73;100.00;95092.44;1026856;28;20030;-71
2021/12/06 02:32:56;;;;;;;51.00;25.23;;;;;;;-0.74;100.00;95084.91;1026814;28;20160;-72
2021/12/06 02:33:27;;;;;;;53.15;25.20;;;;;;;-0.71;100.00;95087.84;1023177;28;20027;-71
2021/12/06 02:33:57;;;;;;;51.42;24.73;;;;;;;-0.72;100.00;95086.28;1019642;29;20028;-71
2021/12/06 02:34:28;;;;;;;56.53;24.10;;;;;;;-0.73;100.00;95096.81;1019500;29;20110;-73
2021/12/06 02:34:59;;;;;;;54.92;25.58;;;;;;;-0.78;100.00;95087.13;1018816;29;20040;-71
2021/12/06 02:35:30;;;;;;;61.88;25.44;;;;;;;-0.81;100.00;95090.09;1019555;29;20703;-71
2021/12/06 02:36:03;;;;;;;70.68;27.13;;;;;;;-0.80;100.00;95086.56;1016206;29;20119;-72
2021/12/06 02:36:33;;;;;;;76.36;26.48;;;;;;;-0.85;100.00;95086.38;1020468;28;20035;-72
2021/12/06 02:37:04;;;;;;;58.78;24.27;;;;;;;-0.84;100.00;95085.38;1016035;29;20039;-71
2021/12/06 02:37:34;;;;;;;68.78;25.83;;;;;;;-0.82;100.00;95088.53;1015158;29;20108;-71
2021/12/06 02:38:07;;;;;;;71.45;27.15;;;;;;;-0.87;100.00;95085.81;1014653;29;20039;-71
2021/12/06 02:38:38;;;;;;;53.84;24.28;;;;;;;-0.93;100.00;95075.53;1020488;29;20738;-72
2021/12/06 02:39:10;;;;;;;72.38;27.50;;;;;;;-0.92;100.00;95080.47;1015833;29;20063;-71
2021/12/06 02:39:40;;;;;;;64.96;26.62;;;;;;;-0.90;100.00;95075.91;1019592;29;20812;-71